createdAt,value
2019-05-09T00:05:25.449Z,44.50
2019-05-09T00:15:33.087Z,44.50
2019-05-09T00:25:38.238Z,44.40
2019-05-09T00:35:44.268Z,44.50
2019-05-09T00:46:08.605Z,44.40
2019-05-09T00:56:14.115Z,44.40
2019-05-09T01:06:20.622Z,44.40
2019-05-09T01:16:26.030Z,44.50
2019-05-09T01:26:33.343Z,44.50
2019-05-09T01:36:56.247Z,44.50
2019-05-09T01:47:03.706Z,44.50
2019-05-09T01:57:13.655Z,44.50
2019-05-09T02:07:18.394Z,45.30
2019-05-09T02:17:57.342Z,44.60
2019-05-09T02:27:50.422Z,44.60
2019-05-09T02:37:58.570Z,44.70
2019-05-09T02:48:03.265Z,44.80
2019-05-09T02:58:10.500Z,44.80
2019-05-09T03:08:18.980Z,44.90
2019-05-09T03:18:23.027Z,44.90
2019-05-09T03:28:49.207Z,44.90
2019-05-09T03:38:55.067Z,44.90
2019-05-09T03:49:01.920Z,44.90
2019-05-09T03:59:08.307Z,45.00
2019-05-09T04:09:13.862Z,45.10
2019-05-09T04:19:19.265Z,45.10
2019-05-09T04:29:24.619Z,45.30
2019-05-09T04:39:30.142Z,45.20
2019-05-09T04:49:40.885Z,45.30
2019-05-09T04:59:42.672Z,45.30
2019-05-09T05:09:48.451Z,45.30
2019-05-09T05:19:54.596Z,45.40
2019-05-09T05:30:01.894Z,45.50
2019-05-09T05:40:07.865Z,45.50
2019-05-09T05:50:13.643Z,45.60
2019-05-09T06:00:20.682Z,45.70
2019-05-09T06:10:28.783Z,45.70
2019-05-09T06:20:33.368Z,45.70
2019-05-09T06:30:41.172Z,45.70
2019-05-09T06:40:47.559Z,45.70
2019-05-09T06:50:53.069Z,45.70
2019-05-09T07:01:09.818Z,45.70
2019-05-09T07:11:15.301Z,45.80
2019-05-09T07:21:20.873Z,45.70
2019-05-09T07:31:51.680Z,45.70
2019-05-09T07:41:58.305Z,45.60
2019-05-09T07:52:06.786Z,45.60
2019-05-09T08:02:11.248Z,45.60
2019-05-09T08:12:17.908Z,46.30
2019-05-09T08:22:31.361Z,45.70
2019-05-09T08:32:34.818Z,46.70
2019-05-09T08:42:40.376Z,47.80
2019-05-09T08:52:48.050Z,47.00
2019-05-09T09:02:53.134Z,46.80
2019-05-09T09:12:58.568Z,46.70
2019-05-09T09:23:04.029Z,47.30
2019-05-09T09:33:13.752Z,47.20
2019-05-09T09:43:17.689Z,47.50
2019-05-09T09:53:23.593Z,46.50
2019-05-09T10:03:29.708Z,46.40
2019-05-09T10:13:37.382Z,46.50
2019-05-09T10:23:42.326Z,46.70
2019-05-09T10:33:48.332Z,46.70
2019-05-09T10:44:01.060Z,46.70
2019-05-09T10:54:08.188Z,46.70
2019-05-09T11:04:13.737Z,46.70
2019-05-09T11:14:32.519Z,46.70
2019-05-09T11:24:41.545Z,46.70
2019-05-09T11:34:34.134Z,46.70
2019-05-09T11:44:39.920Z,46.60
2019-05-09T11:54:45.481Z,46.60
2019-05-09T12:04:50.909Z,46.70
2019-05-09T12:14:58.130Z,46.60
2019-05-09T12:25:03.567Z,46.50
2019-05-09T12:35:09.063Z,46.50
2019-05-09T12:45:14.840Z,46.10
2019-05-09T12:55:22.421Z,46.50
2019-05-09T13:05:27.994Z,46.40
2019-05-09T13:15:41.614Z,46.40
2019-05-09T13:25:50.232Z,46.40
2019-05-09T13:35:54.438Z,46.20
2019-05-09T13:45:59.851Z,46.20
2019-05-09T13:56:05.288Z,46.40
2019-05-09T14:06:10.709Z,47.00
2019-05-09T14:16:21.740Z,46.40
2019-05-09T14:26:24.098Z,46.30
2019-05-09T14:36:29.727Z,46.30
2019-05-09T14:46:35.394Z,46.30
2019-05-09T14:56:42.584Z,46.40
2019-05-09T15:06:49.243Z,46.40
2019-05-09T15:16:57.444Z,46.80
2019-05-09T15:27:03.187Z,46.40
2019-05-09T15:37:08.940Z,46.30
2019-05-09T15:47:19.643Z,46.40
2019-05-09T15:57:27.524Z,46.40
2019-05-09T16:07:32.897Z,46.90
2019-05-09T16:17:39.311Z,46.20
2019-05-09T16:27:45.164Z,45.10
2019-05-09T16:38:01.713Z,44.00
2019-05-09T16:47:58.346Z,43.30
2019-05-09T16:58:04.845Z,43.40
2019-05-09T17:08:10.675Z,42.50
2019-05-09T17:18:18.643Z,41.90
2019-05-09T17:28:23.906Z,42.40
2019-05-09T17:38:30.335Z,42.70
2019-05-09T17:48:38.434Z,43.00
2019-05-09T17:58:44.435Z,43.50
2019-05-09T18:08:51.243Z,44.10
2019-05-09T18:18:58.719Z,43.50
2019-05-09T18:29:07.391Z,43.80
2019-05-09T18:39:13.816Z,44.10
2019-05-09T18:49:19.323Z,44.20
2019-05-09T18:59:24.947Z,45.50
2019-05-09T19:09:30.322Z,44.70
2019-05-09T19:19:48.350Z,44.80
2019-05-09T19:29:53.850Z,44.90
2019-05-09T19:39:59.327Z,45.10
2019-05-09T19:50:05.024Z,45.00
2019-05-09T20:00:12.131Z,45.10
2019-05-09T20:10:35.415Z,45.10
2019-05-09T20:20:43.644Z,45.10
2019-05-09T20:30:49.027Z,45.20
2019-05-09T20:40:54.612Z,45.20
2019-05-09T20:51:04.415Z,45.30
2019-05-09T21:01:11.725Z,45.30
2019-05-09T21:11:17.343Z,45.30
2019-05-09T21:21:22.940Z,45.40
2019-05-09T21:31:28.671Z,45.40
2019-05-09T21:41:34.054Z,45.40
2019-05-09T21:51:39.513Z,45.50
2019-05-09T22:01:45.029Z,45.60
2019-05-09T22:11:51.999Z,45.50
2019-05-09T22:21:57.969Z,45.60
2019-05-09T22:32:03.484Z,45.60
2019-05-09T22:42:08.942Z,45.60
2019-05-09T22:52:15.696Z,45.60
2019-05-09T23:02:21.645Z,46.10
2019-05-09T23:12:27.288Z,46.00
2019-05-09T23:22:34.380Z,46.20
2019-05-09T23:32:43.503Z,46.30
2019-05-09T23:42:49.121Z,46.30
2019-05-09T23:52:54.555Z,46.30
